sensor_id;sensor_type;location;lat;lon;timestamp;temperature;humidity
41262;DHT22;29629;52.532;13.352;2022-10-22T00:02:13;14.10;99.90
41262;DHT22;29629;52.532;13.352;2022-10-22T00:04:44;14.20;99.90
41262;DHT22;29629;52.532;13.352;2022-10-22T00:07:12;14.20;99.90
41262;DHT22;29629;52.532;13.352;2022-10-22T00:09:39;14.20;99.90
41262;DHT22;29629;52.532;13.352;2022-10-22T00:12:06;14.20;99.90
41262;DHT22;29629;52.532;13.352;2022-10-22T00:14:33;14.20;99.90
41262;DHT22;29629;52.532;13.352;2022-10-22T00:17:00;14.20;99.90
41262;DHT22;29629;52.532;13.352;2022-10-22T00:19:27;14.20;99.90
41262;DHT22;29629;52.532;13.352;2022-10-22T00:21:54;14.20;99.90
41262;DHT22;29629;52.532;13.352;2022-10-22T00:24:22;14.30;99.90
41262;DHT22;29629;52.532;13.352;2022-10-22T00:26:48;14.30;99.90
41262;DHT22;29629;52.532;13.352;2022-10-22T00:29:15;14.30;99.90
41262;DHT22;29629;52.532;13.352;2022-10-22T00:31:44;14.30;99.90
41262;DHT22;29629;52.532;13.352;2022-10-22T00:34:15;14.20;99.90
41262;DHT22;29629;52.532;13.352;2022-10-22T00:36:41;14.30;99.90
41262;DHT22;29629;52.532;13.352;2022-10-22T00:39:08;14.20;99.90
41262;DHT22;29629;52.532;13.352;2022-10-22T00:41:37;14.20;99.90
41262;DHT22;29629;52.532;13.352;2022-10-22T00:44:05;14.10;99.90
41262;DHT22;29629;52.532;13.352;2022-10-22T00:46:32;14.20;99.90
41262;DHT22;29629;52.532;13.352;2022-10-22T00:49:01;14.20;99.90
41262;DHT22;29629;52.532;13.352;2022-10-22T00:51:31;14.20;99.90
41262;DHT22;29629;52.532;13.352;2022-10-22T00:54:02;14.30;99.90
41262;DHT22;29629;52.532;13.352;2022-10-22T00:56:30;14.20;99.90
41262;DHT22;29629;52.532;13.352;2022-10-22T00:58:59;14.20;99.90
41262;DHT22;29629;52.532;13.352;2022-10-22T01:01:29;14.10;99.90
41262;DHT22;29629;52.532;13.352;2022-10-22T01:03:56;14.10;99.90
41262;DHT22;29629;52.532;13.352;2022-10-22T01:06:25;14.10;99.90
41262;DHT22;29629;52.532;13.352;2022-10-22T01:09:00;14.10;99.90
41262;DHT22;29629;52.532;13.352;2022-10-22T01:11:34;14.10;99.90
41262;DHT22;29629;52.532;13.352;2022-10-22T01:14:14;14.10;99.90
41262;DHT22;29629;52.532;13.352;2022-10-22T01:16:49;14.10;99.90
41262;DHT22;29629;52.532;13.352;2022-10-22T01:19:34;14.10;99.90
41262;DHT22;29629;52.532;13.352;2022-10-22T01:22:08;14.10;99.90
41262;DHT22;29629;52.532;13.352;2022-10-22T01:24:44;14.10;99.90
41262;DHT22;29629;52.532;13.352;2022-10-22T01:27:30;14.00;99.90
41262;DHT22;29629;52.532;13.352;2022-10-22T01:30:02;14.10;99.90
41262;DHT22;29629;52.532;13.352;2022-10-22T01:32:33;14.00;99.90
41262;DHT22;29629;52.532;13.352;2022-10-22T01:35:05;14.00;99.90
41262;DHT22;29629;52.532;13.352;2022-10-22T01:37:37;14.00;99.90
41262;DHT22;29629;52.532;13.352;2022-10-22T01:40:07;14.00;99.90
41262;DHT22;29629;52.532;13.352;2022-10-22T01:42:34;14.00;99.90
41262;DHT22;29629;52.532;13.352;2022-10-22T01:45:10;14.00;99.90
41262;DHT22;29629;52.532;13.352;2022-10-22T01:47:44;14.00;99.90
41262;DHT22;29629;52.532;13.352;2022-10-22T01:50:48;13.90;99.90
41262;DHT22;29629;52.532;13.352;2022-10-22T01:53:20;14.00;99.90
41262;DHT22;29629;52.532;13.352;2022-10-22T01:55:58;13.90;99.90
41262;DHT22;29629;52.532;13.352;2022-10-22T01:58:36;14.00;99.90
41262;DHT22;29629;52.532;13.352;2022-10-22T02:01:13;13.90;99.90
41262;DHT22;29629;52.532;13.352;2022-10-22T02:03:46;13.90;99.90
41262;DHT22;29629;52.532;13.352;2022-10-22T02:06:17;13.90;99.90
41262;DHT22;29629;52.532;13.352;2022-10-22T02:08:46;13.90;99.90
41262;DHT22;29629;52.532;13.352;2022-10-22T02:11:15;13.90;99.90
41262;DHT22;29629;52.532;13.352;2022-10-22T02:13:44;13.90;99.90
41262;DHT22;29629;52.532;13.352;2022-10-22T02:16:16;13.90;99.90
41262;DHT22;29629;52.532;13.352;2022-10-22T02:18:45;13.90;99.90
41262;DHT22;29629;52.532;13.352;2022-10-22T02:21:15;13.90;99.90
41262;DHT22;29629;52.532;13.352;2022-10-22T02:23:42;13.80;99.90
41262;DHT22;29629;52.532;13.352;2022-10-22T02:26:15;13.80;99.90
41262;DHT22;29629;52.532;13.352;2022-10-22T02:28:57;13.80;99.90
41262;DHT22;29629;52.532;13.352;2022-10-22T02:31:28;13.80;99.90
41262;DHT22;29629;52.532;13.352;2022-10-22T02:34:00;13.80;99.90
41262;DHT22;29629;52.532;13.352;2022-10-22T02:36:29;13.80;99.90
41262;DHT22;29629;52.532;13.352;2022-10-22T02:38:57;13.80;99.90
41262;DHT22;29629;52.532;13.352;2022-10-22T02:41:24;13.70;99.90
41262;DHT22;29629;52.532;13.352;2022-10-22T02:43:54;13.70;99.90
41262;DHT22;29629;52.532;13.352;2022-10-22T02:46:21;13.70;99.90
41262;DHT22;29629;52.532;13.352;2022-10-22T02:48:49;13.70;99.90
41262;DHT22;29629;52.532;13.352;2022-10-22T02:51:16;13.70;99.90
41262;DHT22;29629;52.532;13.352;2022-10-22T02:53:43;13.70;99.90
41262;DHT22;29629;52.532;13.352;2022-10-22T02:56:10;13.70;99.90
41262;DHT22;29629;52.532;13.352;2022-10-22T02:58:37;13.70;99.90
41262;DHT22;29629;52.532;13.352;2022-10-22T03:01:04;13.70;99.90
41262;DHT22;29629;52.532;13.352;2022-10-22T03:03:30;13.70;99.90
41262;DHT22;29629;52.532;13.352;2022-10-22T03:05:59;13.70;99.90
41262;DHT22;29629;52.532;13.352;2022-10-22T03:08:26;13.60;99.90
41262;DHT22;29629;52.532;13.352;2022-10-22T03:10:52;13.60;99.90
41262;DHT22;29629;52.532;13.352;2022-10-22T03:13:19;13.60;99.90
41262;DHT22;29629;52.532;13.352;2022-10-22T03:15:47;13.70;99.90
41262;DHT22;29629;52.532;13.352;2022-10-22T03:18:14;13.70;99.90
41262;DHT22;29629;52.532;13.352;2022-10-22T03:20:41;13.60;99.90
41262;DHT22;29629;52.532;13.352;2022-10-22T03:23:10;13.70;99.90
41262;DHT22;29629;52.532;13.352;2022-10-22T03:25:39;13.70;99.90
41262;DHT22;29629;52.532;13.352;2022-10-22T03:28:08;13.80;99.90
41262;DHT22;29629;52.532;13.352;2022-10-22T03:30:35;13.70;99.90
41262;DHT22;29629;52.532;13.352;2022-10-22T03:33:02;13.70;99.90
41262;DHT22;29629;52.532;13.352;2022-10-22T03:35:29;13.70;99.90
41262;DHT22;29629;52.532;13.352;2022-10-22T03:37:59;13.70;99.90
41262;DHT22;29629;52.532;13.352;2022-10-22T03:40:28;13.70;99.90
41262;DHT22;29629;52.532;13.352;2022-10-22T03:42:55;13.70;99.90
41262;DHT22;29629;52.532;13.352;2022-10-22T03:45:21;13.70;99.90
41262;DHT22;29629;52.532;13.352;2022-10-22T03:47:48;13.70;99.90
41262;DHT22;29629;52.532;13.352;2022-10-22T03:50:15;13.70;99.90
41262;DHT22;29629;52.532;13.352;2022-10-22T03:52:42;13.70;99.90
41262;DHT22;29629;52.532;13.352;2022-10-22T03:55:09;13.70;99.90
41262;DHT22;29629;52.532;13.352;2022-10-22T03:57:37;13.60;99.90
41262;DHT22;29629;52.532;13.352;2022-10-22T04:00:05;13.60;99.90
41262;DHT22;29629;52.532;13.352;2022-10-22T04:02:32;13.70;99.90
41262;DHT22;29629;52.532;13.352;2022-10-22T04:04:59;13.70;99.90
41262;DHT22;29629;52.532;13.352;2022-10-22T04:07:26;13.70;99.90
41262;DHT22;29629;52.532;13.352;2022-10-22T04:09:53;13.70;99.90
41262;DHT22;29629;52.532;13.352;2022-10-22T04:12:19;13.70;99.90
41262;DHT22;29629;52.532;13.352;2022-10-22T04:14:48;13.70;99.90
41262;DHT22;29629;52.532;13.352;2022-10-22T04:17:15;13.60;99.90
41262;DHT22;29629;52.532;13.352;2022-10-22T04:19:41;13.60;99.90
41262;DHT22;29629;52.532;13.352;2022-10-22T04:22:08;13.60;99.90
41262;DHT22;29629;52.532;13.352;2022-10-22T04:24:35;13.60;99.90
41262;DHT22;29629;52.532;13.352;2022-10-22T04:27:02;13.60;99.90
41262;DHT22;29629;52.532;13.352;2022-10-22T04:29:29;13.70;99.90
41262;DHT22;29629;52.532;13.352;2022-10-22T04:31:57;13.60;99.90
41262;DHT22;29629;52.532;13.352;2022-10-22T04:34:26;13.60;99.90
41262;DHT22;29629;52.532;13.352;2022-10-22T04:36:53;13.60;99.90
41262;DHT22;29629;52.532;13.352;2022-10-22T04:39:20;13.60;99.90
41262;DHT22;29629;52.532;13.352;2022-10-22T04:41:47;13.60;99.90
41262;DHT22;29629;52.532;13.352;2022-10-22T04:44:13;13.60;99.90
41262;DHT22;29629;52.532;13.352;2022-10-22T04:46:40;13.60;99.90
41262;DHT22;29629;52.532;13.352;2022-10-22T04:49:08;13.50;99.90
41262;DHT22;29629;52.532;13.352;2022-10-22T04:51:35;13.60;99.90
41262;DHT22;29629;52.532;13.352;2022-10-22T04:54:02;13.60;99.90
41262;DHT22;29629;52.532;13.352;2022-10-22T04:56:30;13.50;99.90
41262;DHT22;29629;52.532;13.352;2022-10-22T04:58:59;13.60;99.90
41262;DHT22;29629;52.532;13.352;2022-10-22T05:01:28;13.60;99.90
41262;DHT22;29629;52.532;13.352;2022-10-22T05:03:57;13.60;99.90
41262;DHT22;29629;52.532;13.352;2022-10-22T05:06:26;13.60;99.90
41262;DHT22;29629;52.532;13.352;2022-10-22T05:08:54;13.60;99.90
41262;DHT22;29629;52.532;13.352;2022-10-22T05:11:23;13.50;99.90
41262;DHT22;29629;52.532;13.352;2022-10-22T05:13:50;13.50;99.90
41262;DHT22;29629;52.532;13.352;2022-10-22T05:16:17;13.50;99.90
41262;DHT22;29629;52.532;13.352;2022-10-22T05:18:44;13.40;99.90
41262;DHT22;29629;52.532;13.352;2022-10-22T05:21:12;13.40;99.90
41262;DHT22;29629;52.532;13.352;2022-10-22T05:23:41;13.40;99.90
41262;DHT22;29629;52.532;13.352;2022-10-22T05:26:10;13.40;99.90
41262;DHT22;29629;52.532;13.352;2022-10-22T05:28:38;13.40;99.90
41262;DHT22;29629;52.532;13.352;2022-10-22T05:31:06;13.40;99.90
41262;DHT22;29629;52.532;13.352;2022-10-22T05:33:33;13.30;99.90
41262;DHT22;29629;52.532;13.352;2022-10-22T05:36:01;13.30;99.90
41262;DHT22;29629;52.532;13.352;2022-10-22T05:38:28;13.30;99.90
41262;DHT22;29629;52.532;13.352;2022-10-22T05:41:00;13.30;99.90
41262;DHT22;29629;52.532;13.352;2022-10-22T05:43:27;13.30;99.90
41262;DHT22;29629;52.532;13.352;2022-10-22T05:45:55;13.40;99.90
41262;DHT22;29629;52.532;13.352;2022-10-22T05:48:22;13.30;99.90
41262;DHT22;29629;52.532;13.352;2022-10-22T05:50:48;13.40;99.90
41262;DHT22;29629;52.532;13.352;2022-10-22T05:53:16;13.30;99.90
41262;DHT22;29629;52.532;13.352;2022-10-22T05:55:43;13.30;99.90
41262;DHT22;29629;52.532;13.352;2022-10-22T05:58:12;13.30;99.90
41262;DHT22;29629;52.532;13.352;2022-10-22T06:00:40;13.30;99.90
41262;DHT22;29629;52.532;13.352;2022-10-22T06:03:07;13.30;99.90
41262;DHT22;29629;52.532;13.352;2022-10-22T06:05:34;13.20;99.90
41262;DHT22;29629;52.532;13.352;2022-10-22T06:08:02;13.30;99.90
41262;DHT22;29629;52.532;13.352;2022-10-22T06:10:28;13.20;99.90
41262;DHT22;29629;52.532;13.352;2022-10-22T06:12:55;13.30;99.90
41262;DHT22;29629;52.532;13.352;2022-10-22T06:15:24;13.30;99.90
41262;DHT22;29629;52.532;13.352;2022-10-22T06:17:50;13.20;99.90
41262;DHT22;29629;52.532;13.352;2022-10-22T06:20:17;13.20;99.90
41262;DHT22;29629;52.532;13.352;2022-10-22T06:22:44;13.20;99.90
41262;DHT22;29629;52.532;13.352;2022-10-22T06:25:12;13.20;99.90
41262;DHT22;29629;52.532;13.352;2022-10-22T06:27:39;13.30;99.90
41262;DHT22;29629;52.532;13.352;2022-10-22T06:30:07;13.30;99.90
41262;DHT22;29629;52.532;13.352;2022-10-22T06:32:35;13.30;99.90
41262;DHT22;29629;52.532;13.352;2022-10-22T06:35:02;13.30;99.90
41262;DHT22;29629;52.532;13.352;2022-10-22T06:37:29;13.40;99.90
41262;DHT22;29629;52.532;13.352;2022-10-22T06:39:55;13.40;99.90
41262;DHT22;29629;52.532;13.352;2022-10-22T06:42:22;13.40;99.90
41262;DHT22;29629;52.532;13.352;2022-10-22T06:44:49;13.50;99.90
41262;DHT22;29629;52.532;13.352;2022-10-22T06:47:16;13.50;99.90
41262;DHT22;29629;52.532;13.352;2022-10-22T06:49:44;13.60;99.90
41262;DHT22;29629;52.532;13.352;2022-10-22T06:52:11;13.60;99.90
41262;DHT22;29629;52.532;13.352;2022-10-22T06:54:38;13.60;99.90
41262;DHT22;29629;52.532;13.352;2022-10-22T06:57:05;13.60;99.90
41262;DHT22;29629;52.532;13.352;2022-10-22T06:59:31;13.60;99.90
41262;DHT22;29629;52.532;13.352;2022-10-22T07:01:58;13.60;99.90
41262;DHT22;29629;52.532;13.352;2022-10-22T07:04:25;13.70;99.90
41262;DHT22;29629;52.532;13.352;2022-10-22T07:06:55;13.70;99.90
41262;DHT22;29629;52.532;13.352;2022-10-22T07:09:22;13.80;99.90
41262;DHT22;29629;52.532;13.352;2022-10-22T07:11:48;13.70;99.90
41262;DHT22;29629;52.532;13.352;2022-10-22T07:14:15;13.80;99.90
41262;DHT22;29629;52.532;13.352;2022-10-22T07:16:42;13.80;99.90
41262;DHT22;29629;52.532;13.352;2022-10-22T07:19:10;13.90;99.90
41262;DHT22;29629;52.532;13.352;2022-10-22T07:21:37;13.90;99.90
41262;DHT22;29629;52.532;13.352;2022-10-22T07:24:06;13.90;99.90
41262;DHT22;29629;52.532;13.352;2022-10-22T07:26:33;14.00;99.90
41262;DHT22;29629;52.532;13.352;2022-10-22T07:29:01;14.10;99.90
41262;DHT22;29629;52.532;13.352;2022-10-22T07:31:28;14.20;99.90
41262;DHT22;29629;52.532;13.352;2022-10-22T07:33:55;14.30;99.90
41262;DHT22;29629;52.532;13.352;2022-10-22T07:36:22;14.30;99.90
41262;DHT22;29629;52.532;13.352;2022-10-22T07:38:53;14.30;99.90
41262;DHT22;29629;52.532;13.352;2022-10-22T07:41:22;14.40;99.90
41262;DHT22;29629;52.532;13.352;2022-10-22T07:43:49;14.50;99.90
41262;DHT22;29629;52.532;13.352;2022-10-22T07:46:16;14.60;99.90
41262;DHT22;29629;52.532;13.352;2022-10-22T07:48:43;14.70;99.90
41262;DHT22;29629;52.532;13.352;2022-10-22T07:51:09;14.80;99.90
41262;DHT22;29629;52.532;13.352;2022-10-22T07:53:36;14.80;99.90
41262;DHT22;29629;52.532;13.352;2022-10-22T07:56:04;14.80;99.90
41262;DHT22;29629;52.532;13.352;2022-10-22T07:58:32;14.80;99.90
41262;DHT22;29629;52.532;13.352;2022-10-22T08:01:00;14.80;99.90
41262;DHT22;29629;52.532;13.352;2022-10-22T08:03:27;14.70;99.90
41262;DHT22;29629;52.532;13.352;2022-10-22T08:05:54;14.60;99.90
41262;DHT22;29629;52.532;13.352;2022-10-22T08:08:21;14.50;99.90
41262;DHT22;29629;52.532;13.352;2022-10-22T08:10:50;14.50;99.90
41262;DHT22;29629;52.532;13.352;2022-10-22T08:13:18;14.50;99.90
41262;DHT22;29629;52.532;13.352;2022-10-22T08:15:47;14.50;99.90
41262;DHT22;29629;52.532;13.352;2022-10-22T08:18:14;14.60;99.90
41262;DHT22;29629;52.532;13.352;2022-10-22T08:20:41;14.70;99.90
41262;DHT22;29629;52.532;13.352;2022-10-22T08:23:08;14.70;99.90
41262;DHT22;29629;52.532;13.352;2022-10-22T08:25:35;14.70;99.90
41262;DHT22;29629;52.532;13.352;2022-10-22T08:28:01;14.70;99.90
41262;DHT22;29629;52.532;13.352;2022-10-22T08:30:28;14.80;99.90
41262;DHT22;29629;52.532;13.352;2022-10-22T08:32:56;14.80;99.90
41262;DHT22;29629;52.532;13.352;2022-10-22T08:35:23;14.80;99.90
41262;DHT22;29629;52.532;13.352;2022-10-22T08:37:50;14.90;99.90
41262;DHT22;29629;52.532;13.352;2022-10-22T08:40:21;14.90;99.90
41262;DHT22;29629;52.532;13.352;2022-10-22T08:43:23;14.90;99.90
41262;DHT22;29629;52.532;13.352;2022-10-22T08:46:02;14.80;99.90
41262;DHT22;29629;52.532;13.352;2022-10-22T08:48:42;14.80;99.90
41262;DHT22;29629;52.532;13.352;2022-10-22T08:51:14;14.80;99.90
41262;DHT22;29629;52.532;13.352;2022-10-22T08:53:58;14.90;99.90
41262;DHT22;29629;52.532;13.352;2022-10-22T08:56:29;14.90;99.90
41262;DHT22;29629;52.532;13.352;2022-10-22T08:59:00;15.00;99.90
41262;DHT22;29629;52.532;13.352;2022-10-22T09:01:34;15.00;99.90
41262;DHT22;29629;52.532;13.352;2022-10-22T09:04:06;15.00;99.90
41262;DHT22;29629;52.532;13.352;2022-10-22T09:06:37;15.10;99.90
41262;DHT22;29629;52.532;13.352;2022-10-22T09:09:11;15.10;99.90
41262;DHT22;29629;52.532;13.352;2022-10-22T09:11:43;15.10;99.90
41262;DHT22;29629;52.532;13.352;2022-10-22T09:14:13;15.30;99.90
41262;DHT22;29629;52.532;13.352;2022-10-22T09:16:56;15.20;99.90
41262;DHT22;29629;52.532;13.352;2022-10-22T09:19:34;15.20;99.90
41262;DHT22;29629;52.532;13.352;2022-10-22T09:22:13;15.20;99.90
41262;DHT22;29629;52.532;13.352;2022-10-22T09:24:45;15.30;99.90
41262;DHT22;29629;52.532;13.352;2022-10-22T09:27:15;15.30;99.90
41262;DHT22;29629;52.532;13.352;2022-10-22T09:29:44;15.40;99.90
41262;DHT22;29629;52.532;13.352;2022-10-22T09:32:11;15.30;99.90
41262;DHT22;29629;52.532;13.352;2022-10-22T09:34:42;15.40;99.90
41262;DHT22;29629;52.532;13.352;2022-10-22T09:37:09;15.40;99.90
41262;DHT22;29629;52.532;13.352;2022-10-22T09:39:38;15.40;99.90
41262;DHT22;29629;52.532;13.352;2022-10-22T09:42:05;15.50;99.90
41262;DHT22;29629;52.532;13.352;2022-10-22T09:44:34;15.50;99.90
41262;DHT22;29629;52.532;13.352;2022-10-22T09:47:03;15.70;99.90
41262;DHT22;29629;52.532;13.352;2022-10-22T09:49:33;15.70;99.90
41262;DHT22;29629;52.532;13.352;2022-10-22T09:52:01;15.80;99.90
41262;DHT22;29629;52.532;13.352;2022-10-22T09:54:38;15.80;99.90
41262;DHT22;29629;52.532;13.352;2022-10-22T09:57:12;15.80;99.90
41262;DHT22;29629;52.532;13.352;2022-10-22T09:59:41;15.90;99.90
41262;DHT22;29629;52.532;13.352;2022-10-22T10:02:11;15.80;99.90
41262;DHT22;29629;52.532;13.352;2022-10-22T10:04:41;15.80;99.90
41262;DHT22;29629;52.532;13.352;2022-10-22T10:07:17;15.80;99.90
41262;DHT22;29629;52.532;13.352;2022-10-22T10:09:45;15.70;99.90
41262;DHT22;29629;52.532;13.352;2022-10-22T10:12:22;15.70;99.90
41262;DHT22;29629;52.532;13.352;2022-10-22T10:14:58;15.80;99.90
41262;DHT22;29629;52.532;13.352;2022-10-22T10:17:35;15.70;99.90
41262;DHT22;29629;52.532;13.352;2022-10-22T10:20:15;15.80;99.90
41262;DHT22;29629;52.532;13.352;2022-10-22T10:22:54;15.80;99.90
41262;DHT22;29629;52.532;13.352;2022-10-22T10:25:30;15.80;99.90
41262;DHT22;29629;52.532;13.352;2022-10-22T10:28:05;15.80;99.90
41262;DHT22;29629;52.532;13.352;2022-10-22T10:30:39;15.90;99.90
41262;DHT22;29629;52.532;13.352;2022-10-22T10:33:18;16.10;99.90
41262;DHT22;29629;52.532;13.352;2022-10-22T10:35:53;16.20;99.90
41262;DHT22;29629;52.532;13.352;2022-10-22T10:38:38;16.10;99.90
41262;DHT22;29629;52.532;13.352;2022-10-22T10:41:16;16.20;99.90
41262;DHT22;29629;52.532;13.352;2022-10-22T10:43:54;16.20;99.90
41262;DHT22;29629;52.532;13.352;2022-10-22T10:46:30;16.20;99.90
41262;DHT22;29629;52.532;13.352;2022-10-22T10:49:04;16.20;99.90
41262;DHT22;29629;52.532;13.352;2022-10-22T10:51:43;16.20;99.90
41262;DHT22;29629;52.532;13.352;2022-10-22T10:54:25;16.40;99.90
41262;DHT22;29629;52.532;13.352;2022-10-22T10:56:55;16.80;99.90
41262;DHT22;29629;52.532;13.352;2022-10-22T10:59:37;16.90;99.90
41262;DHT22;29629;52.532;13.352;2022-10-22T11:02:22;17.30;99.90
41262;DHT22;29629;52.532;13.352;2022-10-22T11:05:01;17.40;99.90
41262;DHT22;29629;52.532;13.352;2022-10-22T11:07:35;17.40;99.90
41262;DHT22;29629;52.532;13.352;2022-10-22T11:10:12;18.10;99.90
41262;DHT22;29629;52.532;13.352;2022-10-22T11:12:40;18.70;99.90
41262;DHT22;29629;52.532;13.352;2022-10-22T11:15:25;18.40;99.90
41262;DHT22;29629;52.532;13.352;2022-10-22T11:17:55;18.10;99.90
41262;DHT22;29629;52.532;13.352;2022-10-22T11:20:27;18.80;99.90
41262;DHT22;29629;52.532;13.352;2022-10-22T11:23:00;19.20;99.90
41262;DHT22;29629;52.532;13.352;2022-10-22T11:25:36;19.20;99.90
41262;DHT22;29629;52.532;13.352;2022-10-22T11:28:10;18.50;99.90
41262;DHT22;29629;52.532;13.352;2022-10-22T11:30:41;18.90;99.90
41262;DHT22;29629;52.532;13.352;2022-10-22T11:33:11;19.60;99.90
41262;DHT22;29629;52.532;13.352;2022-10-22T11:35:42;20.80;99.90
41262;DHT22;29629;52.532;13.352;2022-10-22T11:38:13;21.50;99.90
41262;DHT22;29629;52.532;13.352;2022-10-22T11:40:46;22.00;99.90
41262;DHT22;29629;52.532;13.352;2022-10-22T11:43:26;21.90;99.90
41262;DHT22;29629;52.532;13.352;2022-10-22T11:46:00;23.00;99.90
41262;DHT22;29629;52.532;13.352;2022-10-22T11:48:34;23.30;99.90
41262;DHT22;29629;52.532;13.352;2022-10-22T11:51:02;23.80;99.90
41262;DHT22;29629;52.532;13.352;2022-10-22T11:53:31;24.10;99.90
41262;DHT22;29629;52.532;13.352;2022-10-22T11:56:03;23.60;99.90
41262;DHT22;29629;52.532;13.352;2022-10-22T11:58:46;23.80;99.90
41262;DHT22;29629;52.532;13.352;2022-10-22T12:01:39;23.70;99.90
41262;DHT22;29629;52.532;13.352;2022-10-22T12:04:20;23.40;99.90
41262;DHT22;29629;52.532;13.352;2022-10-22T12:06:58;22.80;99.90
41262;DHT22;29629;52.532;13.352;2022-10-22T12:09:27;22.80;99.90
41262;DHT22;29629;52.532;13.352;2022-10-22T12:12:04;22.70;99.90
41262;DHT22;29629;52.532;13.352;2022-10-22T12:14:50;23.20;99.90
41262;DHT22;29629;52.532;13.352;2022-10-22T12:17:19;23.50;99.90
41262;DHT22;29629;52.532;13.352;2022-10-22T12:19:49;23.80;99.90
41262;DHT22;29629;52.532;13.352;2022-10-22T12:22:20;24.40;99.90
41262;DHT22;29629;52.532;13.352;2022-10-22T12:24:49;24.70;99.90
41262;DHT22;29629;52.532;13.352;2022-10-22T12:27:19;25.20;99.90
41262;DHT22;29629;52.532;13.352;2022-10-22T12:29:46;24.70;99.90
41262;DHT22;29629;52.532;13.352;2022-10-22T12:32:14;24.60;99.90
41262;DHT22;29629;52.532;13.352;2022-10-22T12:34:45;24.90;99.90
41262;DHT22;29629;52.532;13.352;2022-10-22T12:37:13;24.90;99.90
41262;DHT22;29629;52.532;13.352;2022-10-22T12:39:40;24.50;99.90
41262;DHT22;29629;52.532;13.352;2022-10-22T12:42:09;24.50;99.90
41262;DHT22;29629;52.532;13.352;2022-10-22T12:44:39;24.30;99.90
41262;DHT22;29629;52.532;13.352;2022-10-22T12:47:06;24.10;99.90
41262;DHT22;29629;52.532;13.352;2022-10-22T12:49:39;23.70;99.90
41262;DHT22;29629;52.532;13.352;2022-10-22T12:52:10;23.50;99.90
41262;DHT22;29629;52.532;13.352;2022-10-22T12:54:39;23.20;99.90
41262;DHT22;29629;52.532;13.352;2022-10-22T12:57:11;22.90;99.90
41262;DHT22;29629;52.532;13.352;2022-10-22T12:59:41;22.60;99.90
41262;DHT22;29629;52.532;13.352;2022-10-22T13:02:15;22.30;99.90
41262;DHT22;29629;52.532;13.352;2022-10-22T13:05:07;21.80;99.90
41262;DHT22;29629;52.532;13.352;2022-10-22T13:07:40;21.60;99.90
41262;DHT22;29629;52.532;13.352;2022-10-22T13:10:16;21.50;99.90
41262;DHT22;29629;52.532;13.352;2022-10-22T13:12:47;21.10;99.90
41262;DHT22;29629;52.532;13.352;2022-10-22T13:15:30;21.10;99.90
41262;DHT22;29629;52.532;13.352;2022-10-22T13:18:02;21.00;99.90
41262;DHT22;29629;52.532;13.352;2022-10-22T13:20:30;20.90;99.90
41262;DHT22;29629;52.532;13.352;2022-10-22T13:22:57;20.70;99.90
41262;DHT22;29629;52.532;13.352;2022-10-22T13:25:27;20.60;99.90
41262;DHT22;29629;52.532;13.352;2022-10-22T13:27:55;20.40;99.90
41262;DHT22;29629;52.532;13.352;2022-10-22T13:30:26;20.30;99.90
41262;DHT22;29629;52.532;13.352;2022-10-22T13:32:55;20.30;99.90
41262;DHT22;29629;52.532;13.352;2022-10-22T13:35:25;20.20;99.90
41262;DHT22;29629;52.532;13.352;2022-10-22T13:37:53;19.90;99.90
41262;DHT22;29629;52.532;13.352;2022-10-22T13:40:20;19.80;99.90
41262;DHT22;29629;52.532;13.352;2022-10-22T13:42:47;19.70;99.90
41262;DHT22;29629;52.532;13.352;2022-10-22T13:45:14;19.60;99.90
41262;DHT22;29629;52.532;13.352;2022-10-22T13:47:45;19.60;99.90
41262;DHT22;29629;52.532;13.352;2022-10-22T13:50:15;19.50;99.90
41262;DHT22;29629;52.532;13.352;2022-10-22T13:52:45;19.40;99.90
41262;DHT22;29629;52.532;13.352;2022-10-22T13:55:13;19.30;99.90
41262;DHT22;29629;52.532;13.352;2022-10-22T13:57:40;19.40;99.90
41262;DHT22;29629;52.532;13.352;2022-10-22T14:00:11;19.30;99.90
41262;DHT22;29629;52.532;13.352;2022-10-22T14:02:38;19.20;99.90
41262;DHT22;29629;52.532;13.352;2022-10-22T14:05:07;19.00;99.90
41262;DHT22;29629;52.532;13.352;2022-10-22T14:07:34;19.00;99.90
41262;DHT22;29629;52.532;13.352;2022-10-22T14:10:01;19.00;99.90
41262;DHT22;29629;52.532;13.352;2022-10-22T14:12:28;19.00;99.90
41262;DHT22;29629;52.532;13.352;2022-10-22T14:14:55;18.80;99.90
41262;DHT22;29629;52.532;13.352;2022-10-22T14:17:21;18.90;99.90
41262;DHT22;29629;52.532;13.352;2022-10-22T14:19:48;18.90;99.90
41262;DHT22;29629;52.532;13.352;2022-10-22T14:22:17;18.80;99.90
41262;DHT22;29629;52.532;13.352;2022-10-22T14:24:44;18.70;99.90
41262;DHT22;29629;52.532;13.352;2022-10-22T14:27:13;18.70;99.90
41262;DHT22;29629;52.532;13.352;2022-10-22T14:29:40;18.70;99.90
41262;DHT22;29629;52.532;13.352;2022-10-22T14:32:12;18.70;99.90
41262;DHT22;29629;52.532;13.352;2022-10-22T14:34:40;18.70;99.90
41262;DHT22;29629;52.532;13.352;2022-10-22T14:37:14;18.80;99.90
41262;DHT22;29629;52.532;13.352;2022-10-22T14:39:43;18.60;99.90
41262;DHT22;29629;52.532;13.352;2022-10-22T14:42:11;18.60;99.90
41262;DHT22;29629;52.532;13.352;2022-10-22T14:44:38;18.60;99.90
41262;DHT22;29629;52.532;13.352;2022-10-22T14:47:05;18.50;99.90
41262;DHT22;29629;52.532;13.352;2022-10-22T14:49:32;18.50;99.90
41262;DHT22;29629;52.532;13.352;2022-10-22T14:51:59;18.50;99.90
41262;DHT22;29629;52.532;13.352;2022-10-22T14:54:26;18.50;99.90
41262;DHT22;29629;52.532;13.352;2022-10-22T14:56:54;18.50;99.90
41262;DHT22;29629;52.532;13.352;2022-10-22T14:59:20;18.50;99.90
41262;DHT22;29629;52.532;13.352;2022-10-22T15:01:47;18.40;99.90
41262;DHT22;29629;52.532;13.352;2022-10-22T15:04:14;18.40;99.90
41262;DHT22;29629;52.532;13.352;2022-10-22T15:06:41;18.40;99.90
41262;DHT22;29629;52.532;13.352;2022-10-22T15:09:07;18.30;99.90
41262;DHT22;29629;52.532;13.352;2022-10-22T15:11:34;18.20;99.90
41262;DHT22;29629;52.532;13.352;2022-10-22T15:14:02;18.20;99.90
41262;DHT22;29629;52.532;13.352;2022-10-22T15:16:29;18.30;99.90
41262;DHT22;29629;52.532;13.352;2022-10-22T15:18:56;18.30;99.90
41262;DHT22;29629;52.532;13.352;2022-10-22T15:21:24;18.20;99.90
41262;DHT22;29629;52.532;13.352;2022-10-22T15:23:50;18.10;99.90
41262;DHT22;29629;52.532;13.352;2022-10-22T15:26:17;18.10;99.90
41262;DHT22;29629;52.532;13.352;2022-10-22T15:28:44;18.10;99.90
41262;DHT22;29629;52.532;13.352;2022-10-22T15:31:13;18.10;99.90
41262;DHT22;29629;52.532;13.352;2022-10-22T15:33:41;18.10;99.90